Time;durP1;ratioP1;P1;durP2;ratioP2;P2;SDS_P1;SDS_P2;PMS_P1;PMS_P2;Temp;Humidity;BMP_temperature;BMP_pressure;BME280_temperature;BME280_humidity;BME280_pressure;Samples;Min_cycle;Max_cycle;Signal;HPM_P1;HPM_P2
2023/04/16 00:01:21;;;;;;;61.05;25.10;;;8.60;99.90;;;;;;5091885;28;20113;-61
2023/04/16 00:03:48;;;;;;;57.83;23.85;;;8.70;99.90;;;;;;5073133;28;20132;-61
2023/04/16 00:06:15;;;;;;;60.30;24.20;;;8.60;99.90;;;;;;5091974;28;20044;-61
2023/04/16 00:08:42;;;;;;;49.47;22.67;;;8.60;99.90;;;;;;5092220;28;20056;-61
2023/04/16 00:11:11;;;;;;;58.53;25.60;;;8.70;99.90;;;;;;5073317;28;20047;-62
2023/04/16 00:13:38;;;;;;;46.92;22.48;;;8.60;99.90;;;;;;5091755;28;20048;-61
2023/04/16 00:16:05;;;;;;;53.90;22.67;;;8.70;99.90;;;;;;5074092;28;20047;-62
2023/04/16 00:18:32;;;;;;;51.55;24.23;;;8.70;99.90;;;;;;5091444;28;20048;-61
2023/04/16 00:20:59;;;;;;;47.00;23.92;;;8.70;99.90;;;;;;5074029;28;20048;-60
2023/04/16 00:23:26;;;;;;;49.03;21.60;;;8.70;99.90;;;;;;5071530;28;20496;-60
2023/04/16 00:25:56;;;;;;;43.40;21.30;;;8.70;99.90;;;;;;5073457;28;20064;-61
2023/04/16 00:28:24;;;;;;;50.03;22.65;;;8.70;99.90;;;;;;5072156;28;20089;-62
2023/04/16 00:30:51;;;;;;;57.65;23.58;;;8.70;99.90;;;;;;5091158;28;20303;-62
2023/04/16 00:33:17;;;;;;;51.47;23.60;;;8.70;99.90;;;;;;5074142;28;20079;-62
2023/04/16 00:35:45;;;;;;;49.50;23.35;;;8.60;99.90;;;;;;5073983;28;20120;-62
2023/04/16 00:38:12;;;;;;;57.30;23.10;;;8.70;99.90;;;;;;5091005;28;20044;-61
2023/04/16 00:40:39;;;;;;;48.15;21.60;;;8.60;99.90;;;;;;5091951;28;20048;-62
2023/04/16 00:43:06;;;;;;;49.28;22.77;;;8.60;99.90;;;;;;5091736;28;20048;-61
2023/04/16 00:45:34;;;;;;;44.03;23.05;;;8.60;99.90;;;;;;5088796;28;20102;-62
2023/04/16 00:48:02;;;;;;;52.08;24.13;;;8.60;99.90;;;;;;5092664;28;20051;-62
2023/04/16 00:50:29;;;;;;;49.50;24.42;;;8.60;99.90;;;;;;5095415;28;20439;-62
2023/04/16 00:52:57;;;;;;;48.17;24.02;;;8.60;99.90;;;;;;5076200;28;20044;-61
2023/04/16 00:55:24;;;;;;;52.00;25.85;;;8.50;99.90;;;;;;5095579;28;20072;-61
2023/04/16 00:57:50;;;;;;;43.00;24.02;;;8.50;99.90;;;;;;5077101;28;20098;-61
2023/04/16 01:00:17;;;;;;;46.03;22.42;;;8.50;99.90;;;;;;5094629;28;20044;-62
2023/04/16 01:02:46;;;;;;;47.83;24.92;;;8.40;99.90;;;;;;5076561;28;20075;-63
2023/04/16 01:05:12;;;;;;;47.63;25.50;;;8.40;99.90;;;;;;5077134;28;20395;-61
2023/04/16 01:07:39;;;;;;;54.72;25.98;;;8.40;99.90;;;;;;5094699;28;20449;-61
2023/04/16 01:10:07;;;;;;;49.55;25.17;;;8.40;99.90;;;;;;5077133;28;20461;-62
2023/04/16 01:12:34;;;;;;;68.85;28.27;;;8.40;99.90;;;;;;5094686;28;20522;-62
2023/04/16 01:15:01;;;;;;;57.15;26.40;;;8.40;99.90;;;;;;5094304;28;20422;-60
2023/04/16 01:17:28;;;;;;;49.72;24.38;;;8.40;99.90;;;;;;5094683;28;20043;-61
2023/04/16 01:20:00;;;;;;;71.35;27.75;;;8.40;99.90;;;;;;5095082;28;20048;-60
2023/04/16 01:22:28;;;;;;;60.75;26.05;;;8.40;99.90;;;;;;5094828;28;20450;-61
2023/04/16 01:24:55;;;;;;;62.67;26.73;;;8.50;99.90;;;;;;5076912;28;20056;-61
2023/04/16 01:27:22;;;;;;;60.00;25.35;;;8.50;99.90;;;;;;5076063;28;20056;-61
2023/04/16 01:29:49;;;;;;;66.03;26.23;;;8.50;99.90;;;;;;5094742;28;20445;-62
2023/04/16 01:32:16;;;;;;;57.15;25.52;;;8.50;99.90;;;;;;5094168;28;20565;-61
2023/04/16 01:34:43;;;;;;;56.13;25.58;;;8.50;99.90;;;;;;5076107;28;20105;-61
2023/04/16 01:37:10;;;;;;;61.17;25.50;;;8.50;99.90;;;;;;5094387;28;20462;-62
2023/04/16 01:39:38;;;;;;;56.45;26.40;;;8.50;99.90;;;;;;5076562;28;20454;-61
2023/04/16 01:42:05;;;;;;;61.45;26.23;;;8.50;99.90;;;;;;5093811;28;20096;-61
2023/04/16 01:44:31;;;;;;;70.25;27.33;;;8.50;99.90;;;;;;5076210;28;20419;-61
2023/04/16 01:46:58;;;;;;;62.50;27.85;;;8.50;99.90;;;;;;5094325;28;20093;-61
2023/04/16 01:49:25;;;;;;;68.15;26.35;;;8.50;99.90;;;;;;5093536;28;20113;-59
2023/04/16 01:51:52;;;;;;;67.47;27.00;;;8.50;99.90;;;;;;5076234;28;20051;-60
2023/04/16 01:54:19;;;;;;;69.00;28.52;;;8.50;99.90;;;;;;5076005;28;20055;-61
2023/04/16 01:56:47;;;;;;;67.07;27.25;;;8.50;99.90;;;;;;5093366;28;20044;-61
2023/04/16 01:59:14;;;;;;;61.53;27.58;;;8.50;99.90;;;;;;5075075;28;20052;-61
2023/04/16 02:01:42;;;;;;;63.20;29.20;;;8.60;99.90;;;;;;5093778;28;20097;-61
2023/04/16 02:04:09;;;;;;;62.75;27.88;;;8.50;99.90;;;;;;5073437;28;20048;-61
2023/04/16 02:06:36;;;;;;;53.97;26.75;;;8.50;99.90;;;;;;5093859;28;20044;-62
2023/04/16 02:09:03;;;;;;;63.10;28.10;;;8.50;99.90;;;;;;5073909;28;20051;-61
2023/04/16 02:11:30;;;;;;;57.03;27.10;;;8.50;99.90;;;;;;5092831;28;20150;-62
2023/04/16 02:13:58;;;;;;;61.83;28.35;;;8.50;99.90;;;;;;5093941;28;20119;-61
2023/04/16 02:16:25;;;;;;;62.20;28.25;;;8.60;99.90;;;;;;5093119;28;20187;-60
2023/04/16 02:18:52;;;;;;;63.67;28.23;;;8.50;99.90;;;;;;5075248;28;20411;-61
2023/04/16 02:21:20;;;;;;;61.80;27.98;;;8.50;99.90;;;;;;5093652;28;20048;-61
2023/04/16 02:23:50;;;;;;;58.20;25.95;;;8.50;99.90;;;;;;5093025;28;20402;-61
2023/04/16 02:26:17;;;;;;;57.55;26.55;;;8.50;99.90;;;;;;5092183;28;20055;-61
2023/04/16 02:28:44;;;;;;;49.60;26.20;;;8.50;99.90;;;;;;5093550;28;20047;-61
2023/04/16 02:31:12;;;;;;;66.40;30.17;;;8.50;99.90;;;;;;5092712;28;20143;-61
2023/04/16 02:33:39;;;;;;;58.53;27.63;;;8.50;99.90;;;;;;5075301;28;20059;-60
2023/04/16 02:36:06;;;;;;;72.55;29.13;;;8.50;99.90;;;;;;5093453;28;20048;-61
2023/04/16 02:38:33;;;;;;;60.75;28.13;;;8.50;99.90;;;;;;5072226;28;20097;-62
2023/04/16 02:41:00;;;;;;;71.45;27.20;;;8.50;99.90;;;;;;5074913;28;20109;-61
2023/04/16 02:43:27;;;;;;;65.35;27.25;;;8.50;99.90;;;;;;5093270;28;20040;-62
2023/04/16 02:45:54;;;;;;;72.93;28.63;;;8.50;99.90;;;;;;5074581;28;20083;-62
2023/04/16 02:48:22;;;;;;;77.55;29.90;;;8.50;99.90;;;;;;5073103;28;20165;-62
2023/04/16 02:50:49;;;;;;;73.43;30.45;;;8.50;99.90;;;;;;5074934;28;20108;-61
2023/04/16 02:53:15;;;;;;;75.80;29.58;;;8.50;99.90;;;;;;5074444;28;20407;-61
2023/04/16 02:55:51;;;;;;;62.08;28.38;;;8.50;99.90;;;;;;5074998;28;20819;-62
2023/04/16 02:58:18;;;;;;;73.28;29.02;;;8.50;99.90;;;;;;5074644;28;20068;-61
2023/04/16 03:00:45;;;;;;;78.03;30.10;;;8.50;99.90;;;;;;5092349;28;20117;-61
2023/04/16 03:03:12;;;;;;;59.22;26.50;;;8.40;99.90;;;;;;5074324;28;20052;-62
2023/04/16 03:05:40;;;;;;;54.40;26.05;;;8.40;99.90;;;;;;5092052;28;20404;-60
2023/04/16 03:08:07;;;;;;;54.35;25.05;;;8.40;99.90;;;;;;5091140;28;20036;-60
2023/04/16 03:10:35;;;;;;;57.00;23.63;;;8.40;99.90;;;;;;5092364;28;20056;-61
2023/04/16 03:13:02;;;;;;;53.05;24.80;;;8.40;99.90;;;;;;5092071;28;20084;-61
2023/04/16 03:15:29;;;;;;;60.15;26.58;;;8.40;99.90;;;;;;5092313;28;20503;-61
2023/04/16 03:17:56;;;;;;;58.78;25.42;;;8.40;99.90;;;;;;5074527;28;20165;-61
2023/04/16 03:20:23;;;;;;;67.00;25.95;;;8.40;99.90;;;;;;5091592;28;20097;-62
2023/04/16 03:22:52;;;;;;;63.58;24.50;;;8.40;99.90;;;;;;5074310;28;20501;-63
2023/04/16 03:25:19;;;;;;;63.03;24.30;;;8.30;99.90;;;;;;5072206;28;20097;-61
2023/04/16 03:27:46;;;;;;;56.80;24.63;;;8.30;99.90;;;;;;5091931;28;20052;-60
2023/04/16 03:30:14;;;;;;;60.70;23.80;;;8.30;99.90;;;;;;5092427;28;20449;-62
2023/04/16 03:32:41;;;;;;;54.47;24.88;;;8.30;99.90;;;;;;5092127;28;20052;-61
2023/04/16 03:35:09;;;;;;;63.58;23.05;;;8.30;99.90;;;;;;5091949;28;20127;-61
2023/04/16 03:37:36;;;;;;;61.30;22.15;;;8.30;99.90;;;;;;5092419;28;20427;-60
2023/04/16 03:40:05;;;;;;;53.55;21.83;;;8.30;99.90;;;;;;5074400;28;20113;-62
2023/04/16 03:42:32;;;;;;;62.33;23.15;;;8.30;99.90;;;;;;5091645;28;20106;-61
2023/04/16 03:44:59;;;;;;;64.07;24.00;;;8.20;99.90;;;;;;5074247;28;20060;-61
2023/04/16 03:47:26;;;;;;;67.28;24.25;;;8.20;99.90;;;;;;5074484;28;20066;-60
2023/04/16 03:49:53;;;;;;;58.47;23.20;;;8.20;99.90;;;;;;5073362;28;20052;-60
2023/04/16 03:52:20;;;;;;;48.75;21.67;;;8.20;99.90;;;;;;5092222;28;20086;-61
2023/04/16 03:54:47;;;;;;;56.67;23.20;;;8.20;99.90;;;;;;5091631;28;20044;-62
2023/04/16 03:57:15;;;;;;;52.53;20.98;;;8.20;99.90;;;;;;5092078;28;20090;-61
2023/04/16 03:59:42;;;;;;;59.80;24.15;;;8.20;99.90;;;;;;5091831;28;20522;-60
2023/04/16 04:02:09;;;;;;;74.78;25.98;;;8.20;99.90;;;;;;5091202;28;20098;-61
2023/04/16 04:04:35;;;;;;;59.10;23.85;;;8.20;99.90;;;;;;5092140;28;20044;-60
2023/04/16 04:07:02;;;;;;;67.38;24.10;;;8.20;99.90;;;;;;5092171;28;20048;-61
2023/04/16 04:09:29;;;;;;;62.78;24.73;;;8.20;99.90;;;;;;5073257;28;20044;-61
2023/04/16 04:11:56;;;;;;;71.65;24.15;;;8.10;99.90;;;;;;5073947;28;20048;-60
2023/04/16 04:14:24;;;;;;;54.78;23.38;;;8.10;99.90;;;;;;5091633;28;20106;-63
2023/04/16 04:16:51;;;;;;;66.45;24.25;;;8.10;99.90;;;;;;5091467;28;20450;-62
2023/04/16 04:19:18;;;;;;;60.30;23.23;;;8.10;99.90;;;;;;5091962;28;20044;-63
2023/04/16 04:21:45;;;;;;;56.10;24.02;;;8.10;99.90;;;;;;5091791;28;20052;-63
2023/04/16 04:24:11;;;;;;;50.30;22.08;;;8.00;99.90;;;;;;5094472;28;20104;-61
2023/04/16 04:26:38;;;;;;;57.30;22.38;;;8.10;99.90;;;;;;5077504;28;20504;-62
2023/04/16 04:29:05;;;;;;;62.30;22.27;;;8.10;99.90;;;;;;5077749;28;20051;-60
2023/04/16 04:31:33;;;;;;;62.40;23.70;;;8.10;99.90;;;;;;5094904;28;20101;-62
2023/04/16 04:34:00;;;;;;;56.45;21.98;;;8.10;99.90;;;;;;5077508;28;20043;-62
2023/04/16 04:36:27;;;;;;;58.13;23.23;;;8.10;99.90;;;;;;5077230;28;20048;-61
2023/04/16 04:38:54;;;;;;;58.60;23.40;;;8.10;99.90;;;;;;5094928;28;20385;-60
2023/04/16 04:41:21;;;;;;;48.75;21.27;;;8.00;99.90;;;;;;5076920;28;20094;-61
2023/04/16 04:43:48;;;;;;;55.00;22.20;;;8.10;99.90;;;;;;5077415;28;20052;-61
2023/04/16 04:46:14;;;;;;;54.42;21.00;;;8.10;99.90;;;;;;5094655;28;20048;-61
2023/04/16 04:48:43;;;;;;;57.45;21.70;;;8.10;99.90;;;;;;5077521;28;20480;-61
2023/04/16 04:51:09;;;;;;;52.42;21.23;;;8.20;99.90;;;;;;5074777;28;20044;-61
2023/04/16 04:53:36;;;;;;;52.25;22.77;;;8.10;99.90;;;;;;5095358;28;20070;-61
2023/04/16 04:56:03;;;;;;;50.83;22.30;;;8.10;99.90;;;;;;5093045;28;20078;-60
2023/04/16 04:58:30;;;;;;;59.60;23.20;;;8.10;99.90;;;;;;5076503;28;20097;-60
2023/04/16 05:00:57;;;;;;;62.38;23.17;;;8.10;99.90;;;;;;5095187;28;20052;-64
2023/04/16 05:03:24;;;;;;;66.05;23.90;;;8.10;99.90;;;;;;5076791;28;20461;-63
2023/04/16 05:05:52;;;;;;;54.97;21.10;;;8.10;99.90;;;;;;5094324;28;20552;-63
2023/04/16 05:08:19;;;;;;;60.78;23.92;;;8.10;99.90;;;;;;5076779;28;20093;-61
2023/04/16 05:10:46;;;;;;;56.70;22.27;;;8.10;99.90;;;;;;5095078;28;20137;-61
2023/04/16 05:13:13;;;;;;;66.40;22.15;;;8.20;99.90;;;;;;5075977;28;20058;-61
2023/04/16 05:15:40;;;;;;;47.97;20.88;;;8.10;99.90;;;;;;5094951;28;20388;-61
2023/04/16 05:18:07;;;;;;;64.47;21.45;;;8.20;99.90;;;;;;5076875;28;20097;-61
2023/04/16 05:20:33;;;;;;;69.13;21.67;;;8.20;99.90;;;;;;5094449;28;20076;-61
2023/04/16 05:23:02;;;;;;;64.43;23.08;;;8.20;99.90;;;;;;5094472;28;20102;-62
2023/04/16 05:25:29;;;;;;;71.93;24.23;;;8.20;99.90;;;;;;5094710;28;20052;-61
2023/04/16 05:27:55;;;;;;;61.28;19.73;;;8.30;99.90;;;;;;5094273;28;20123;-62
2023/04/16 05:30:22;;;;;;;50.92;20.70;;;8.20;99.90;;;;;;5094504;28;20090;-61
2023/04/16 05:32:49;;;;;;;52.25;20.20;;;8.30;99.90;;;;;;5094640;28;20105;-61
2023/04/16 05:35:16;;;;;;;45.97;19.40;;;8.30;99.90;;;;;;5075834;28;20143;-62
2023/04/16 05:37:43;;;;;;;46.40;19.25;;;8.30;99.90;;;;;;5094706;28;20404;-61
2023/04/16 05:40:13;;;;;;;71.78;22.00;;;8.40;99.90;;;;;;5094531;28;20055;-61
2023/04/16 05:42:40;;;;;;;66.75;22.67;;;8.40;99.90;;;;;;5076129;28;20090;-61
2023/04/16 05:45:08;;;;;;;57.35;20.65;;;8.40;99.90;;;;;;5094205;28;20097;-62
2023/04/16 05:47:34;;;;;;;58.78;21.40;;;8.40;99.90;;;;;;5093946;28;20048;-61
2023/04/16 05:50:01;;;;;;;62.75;22.83;;;8.40;99.90;;;;;;5094045;28;20568;-61
2023/04/16 05:52:28;;;;;;;42.22;20.55;;;8.50;99.90;;;;;;5076114;28;20052;-61
2023/04/16 05:54:55;;;;;;;42.22;19.67;;;8.60;99.90;;;;;;5091579;28;20047;-63
2023/04/16 05:57:23;;;;;;;55.47;22.25;;;8.60;99.90;;;;;;5094040;28;20097;-62
2023/04/16 05:59:50;;;;;;;47.13;19.83;;;8.70;99.90;;;;;;5091299;28;20404;-61
2023/04/16 06:02:17;;;;;;;49.65;20.25;;;8.80;99.90;;;;;;5092934;28;20044;-61
2023/04/16 06:04:44;;;;;;;52.25;20.50;;;8.80;99.90;;;;;;5094173;28;20094;-61
2023/04/16 06:07:11;;;;;;;47.35;18.48;;;8.90;99.90;;;;;;5093079;28;20132;-62
2023/04/16 06:09:37;;;;;;;49.05;19.42;;;9.00;99.90;;;;;;5082415;28;20079;-61
2023/04/16 06:12:05;;;;;;;52.85;18.02;;;9.00;99.90;;;;;;5071543;28;20056;-62
2023/04/16 06:14:33;;;;;;;49.47;17.88;;;9.10;99.90;;;;;;5090428;28;20393;-62
2023/04/16 06:17:00;;;;;;;44.97;17.25;;;9.10;99.90;;;;;;5088999;28;20461;-63
2023/04/16 06:19:27;;;;;;;43.28;18.30;;;9.10;99.90;;;;;;5074032;28;20411;-62
2023/04/16 06:21:54;;;;;;;45.13;17.33;;;9.20;99.90;;;;;;5073082;28;20080;-61
2023/04/16 06:24:21;;;;;;;51.70;18.48;;;9.30;99.90;;;;;;5090470;28;20048;-61
2023/04/16 06:26:48;;;;;;;51.85;19.15;;;9.30;99.90;;;;;;5090408;28;20052;-61
2023/04/16 06:29:14;;;;;;;48.05;18.80;;;9.30;99.90;;;;;;5074282;28;20132;-61
2023/04/16 06:31:43;;;;;;;51.90;19.02;;;9.40;99.90;;;;;;5089581;28;20461;-61
2023/04/16 06:34:09;;;;;;;49.08;18.38;;;9.60;99.90;;;;;;5091115;28;20101;-61
2023/04/16 06:36:37;;;;;;;54.85;17.10;;;9.70;99.90;;;;;;5089871;28;20063;-61
2023/04/16 06:39:04;;;;;;;43.42;17.08;;;9.90;99.90;;;;;;5090068;28;20040;-61
2023/04/16 06:41:31;;;;;;;46.70;18.50;;;9.90;99.90;;;;;;5073150;28;20052;-61
2023/04/16 06:43:58;;;;;;;50.15;17.73;;;9.90;99.90;;;;;;5071524;28;20052;-61
2023/04/16 06:46:24;;;;;;;46.90;17.80;;;10.00;99.90;;;;;;5070554;28;20052;-61
2023/04/16 06:48:53;;;;;;;44.20;16.73;;;10.00;99.90;;;;;;5090204;28;20126;-61
2023/04/16 06:51:20;;;;;;;36.92;15.35;;;10.00;99.90;;;;;;5088387;28;20040;-61
2023/04/16 06:53:46;;;;;;;38.47;16.38;;;10.10;99.90;;;;;;5070750;28;20450;-61
2023/04/16 06:56:13;;;;;;;35.60;16.30;;;10.00;99.90;;;;;;5089113;28;20464;-62
2023/04/16 06:58:40;;;;;;;41.38;16.15;;;9.90;99.90;;;;;;5089977;28;20097;-61
2023/04/16 07:01:07;;;;;;;33.63;16.20;;;9.80;99.90;;;;;;5088017;28;20126;-61
2023/04/16 07:03:35;;;;;;;37.05;16.70;;;9.80;99.90;;;;;;5070472;28;20492;-61
2023/04/16 07:06:03;;;;;;;36.00;15.98;;;9.80;99.90;;;;;;5089165;28;20047;-61
2023/04/16 07:08:30;;;;;;;38.92;17.20;;;9.90;99.90;;;;;;5090445;28;20047;-60
2023/04/16 07:10:57;;;;;;;39.95;17.00;;;9.80;99.90;;;;;;5091726;28;20044;-62
2023/04/16 07:13:24;;;;;;;37.97;16.92;;;9.80;99.90;;;;;;5087372;28;20048;-60
2023/04/16 07:15:51;;;;;;;43.20;16.42;;;9.80;99.90;;;;;;5091465;28;20048;-60
2023/04/16 07:18:18;;;;;;;46.43;16.80;;;9.80;99.90;;;;;;5087552;28;20089;-61
2023/04/16 07:20:45;;;;;;;36.00;15.27;;;9.80;99.90;;;;;;5073502;28;20094;-61
2023/04/16 07:23:13;;;;;;;39.58;16.35;;;9.90;99.90;;;;;;5089401;28;20043;-61
2023/04/16 07:25:40;;;;;;;34.97;15.68;;;9.90;99.90;;;;;;5091519;28;20495;-60
2023/04/16 07:28:07;;;;;;;35.78;16.55;;;10.10;99.90;;;;;;5086498;28;20048;-61
2023/04/16 07:30:34;;;;;;;30.13;14.23;;;10.10;99.90;;;;;;5073513;28;20104;-62
2023/04/16 07:33:02;;;;;;;34.72;14.95;;;10.20;99.90;;;;;;5068959;28;20372;-61
2023/04/16 07:35:29;;;;;;;31.88;13.65;;;10.20;99.90;;;;;;5089526;28;20079;-62
2023/04/16 07:37:56;;;;;;;43.58;15.98;;;10.20;99.90;;;;;;5089680;28;20056;-62
2023/04/16 07:40:25;;;;;;;33.88;14.68;;;10.20;99.90;;;;;;5088725;28;20487;-60
2023/04/16 07:42:52;;;;;;;34.70;14.32;;;10.30;99.90;;;;;;5090164;28;20043;-60
2023/04/16 07:45:19;;;;;;;30.98;14.32;;;10.40;99.90;;;;;;5069802;28;20056;-62
2023/04/16 07:47:46;;;;;;;29.38;14.75;;;10.40;99.90;;;;;;5089868;28;20052;-61
2023/04/16 07:50:13;;;;;;;34.97;14.45;;;10.50;99.90;;;;;;5089750;28;20401;-61
2023/04/16 07:52:41;;;;;;;33.63;14.20;;;10.50;99.90;;;;;;5072688;28;20055;-61
2023/04/16 07:55:08;;;;;;;30.60;14.38;;;10.50;99.90;;;;;;5069958;28;20044;-62
2023/04/16 07:57:37;;;;;;;39.55;14.70;;;10.60;99.90;;;;;;5071429;28;20056;-62
2023/04/16 08:00:04;;;;;;;31.15;14.63;;;10.50;99.90;;;;;;5092833;28;20048;-62
2023/04/16 08:02:32;;;;;;;37.47;15.50;;;10.60;99.90;;;;;;5091212;28;20066;-62
2023/04/16 08:04:59;;;;;;;32.17;15.55;;;10.70;99.90;;;;;;5090698;28;20086;-61
2023/04/16 08:07:26;;;;;;;32.65;14.90;;;10.80;99.90;;;;;;5092845;28;20052;-61
2023/04/16 08:09:53;;;;;;;33.47;14.90;;;10.80;99.90;;;;;;5090864;28;20377;-61
2023/04/16 08:12:20;;;;;;;39.70;15.13;;;10.80;99.90;;;;;;5075086;28;20083;-62
2023/04/16 08:14:49;;;;;;;28.77;14.35;;;10.90;99.90;;;;;;5090341;28;20192;-62
2023/04/16 08:17:16;;;;;;;36.42;14.43;;;11.00;99.90;;;;;;5074890;28;20057;-61
2023/04/16 08:19:43;;;;;;;39.50;14.75;;;11.00;99.90;;;;;;5091646;28;20448;-62
2023/04/16 08:22:10;;;;;;;32.72;14.50;;;11.10;99.90;;;;;;5094224;28;20071;-62
2023/04/16 08:24:37;;;;;;;35.10;14.07;;;11.40;99.90;;;;;;5092749;28;20048;-61
2023/04/16 08:27:04;;;;;;;31.58;14.05;;;11.60;99.90;;;;;;5092311;28;20056;-61
2023/04/16 08:29:31;;;;;;;37.65;14.73;;;11.80;99.90;;;;;;5075444;28;20052;-61
2023/04/16 08:31:59;;;;;;;30.13;13.68;;;12.00;99.90;;;;;;5090906;28;20056;-61
2023/04/16 08:34:26;;;;;;;34.10;13.52;;;12.20;99.90;;;;;;5091636;28;20126;-62
2023/04/16 08:36:53;;;;;;;30.45;13.85;;;12.40;99.90;;;;;;5074827;28;20098;-62
2023/04/16 08:39:21;;;;;;;33.42;14.38;;;12.50;99.90;;;;;;5073363;28;20098;-62
2023/04/16 08:41:48;;;;;;;28.30;12.80;;;12.70;99.90;;;;;;5090482;28;20095;-61
2023/04/16 08:44:20;;;;;;;26.35;13.65;;;12.10;99.90;;;;;;5072029;28;20551;-61
2023/04/16 08:46:47;;;;;;;30.15;13.75;;;12.90;99.90;;;;;;5074246;28;20410;-62
2023/04/16 08:49:17;;;;;;;32.50;13.93;;;13.10;99.90;;;;;;5093943;28;20490;-60
2023/04/16 08:51:51;;;;;;;33.65;14.50;;;13.20;99.90;;;;;;5072772;28;20052;-62
2023/04/16 08:54:30;;;;;;;25.80;13.23;;;13.30;99.90;;;;;;5075036;28;20142;-62
2023/04/16 08:56:59;;;;;;;28.98;13.00;;;13.50;99.90;;;;;;5070976;28;20132;-62
2023/04/16 08:59:26;;;;;;;28.25;14.45;;;13.60;99.90;;;;;;5092929;28;20039;-62
2023/04/16 09:01:57;;;;;;;29.02;12.38;;;13.90;99.90;;;;;;5092485;28;20056;-62
2023/04/16 09:04:27;;;;;;;23.88;12.40;;;14.00;99.90;;;;;;5093166;28;20044;-61
2023/04/16 09:06:55;;;;;;;25.93;13.27;;;13.90;99.90;;;;;;5093720;28;20093;-61
2023/04/16 09:09:23;;;;;;;28.08;13.05;;;13.90;99.90;;;;;;5072561;28;20308;-61
2023/04/16 09:11:51;;;;;;;36.45;14.13;;;14.00;99.90;;;;;;5091483;28;20040;-61
2023/04/16 09:14:19;;;;;;;26.98;12.80;;;14.10;99.90;;;;;;5072184;28;20622;-61
2023/04/16 09:16:47;;;;;;;26.13;13.38;;;14.30;99.90;;;;;;5074984;28;20063;-60
2023/04/16 09:19:14;;;;;;;22.70;12.50;;;14.20;99.90;;;;;;5091840;28;20040;-62
2023/04/16 09:21:45;;;;;;;28.05;13.32;;;14.40;99.90;;;;;;5093809;28;20385;-61
2023/04/16 09:24:12;;;;;;;27.40;13.07;;;14.60;99.90;;;;;;5092454;28;20416;-62
2023/04/16 09:26:42;;;;;;;28.17;13.30;;;14.60;99.90;;;;;;5073586;28;20047;-61
2023/04/16 09:29:09;;;;;;;29.02;12.95;;;14.70;99.90;;;;;;5092462;28;20471;-61
2023/04/16 09:31:36;;;;;;;30.30;12.57;;;14.70;99.90;;;;;;5094197;28;20044;-62
2023/04/16 09:34:04;;;;;;;20.85;11.40;;;14.70;99.90;;;;;;5091788;28;20093;-62
2023/04/16 09:36:32;;;;;;;24.27;11.85;;;14.80;99.90;;;;;;5076091;28;20067;-62
2023/04/16 09:39:01;;;;;;;27.85;12.60;;;14.90;99.90;;;;;;5074651;28;20108;-62
2023/04/16 09:41:31;;;;;;;24.27;11.98;;;15.00;99.90;;;;;;5075057;28;20093;-62
2023/04/16 09:43:59;;;;;;;21.58;11.55;;;15.00;99.90;;;;;;5073986;28;20048;-61
2023/04/16 09:46:30;;;;;;;36.30;12.32;;;15.00;99.90;;;;;;5092983;28;20553;-61
2023/04/16 09:48:57;;;;;;;24.27;12.57;;;15.00;99.90;;;;;;5070733;28;20485;-63
2023/04/16 09:51:25;;;;;;;30.83;13.10;;;15.20;99.90;;;;;;5073495;28;20063;-61
2023/04/16 09:53:53;;;;;;;27.75;12.70;;;15.10;99.90;;;;;;5068839;28;20922;-62
2023/04/16 09:56:25;;;;;;;26.30;12.48;;;15.20;99.90;;;;;;5073247;28;20158;-61
2023/04/16 09:58:57;;;;;;;27.17;12.43;;;15.10;99.90;;;;;;5071461;28;20522;-62
2023/04/16 10:01:24;;;;;;;26.92;12.82;;;15.10;99.90;;;;;;5090844;28;20044;-62
2023/04/16 10:03:54;;;;;;;25.45;12.57;;;15.10;99.90;;;;;;5071408;28;20048;-61
2023/04/16 10:06:22;;;;;;;;;;;15.20;99.90;;;;;;5072378;28;20044;-63
2023/04/16 10:08:50;;;;;;;26.55;12.00;;;15.20;99.90;;;;;;5071636;28;19977;-62
2023/04/16 10:11:18;;;;;;;25.08;11.77;;;15.20;99.90;;;;;;5054905;28;20052;-62
2023/04/16 10:13:46;;;;;;;29.10;12.23;;;15.30;99.90;;;;;;5072446;28;20048;-63
2023/04/16 10:16:13;;;;;;;28.60;11.55;;;15.30;99.90;;;;;;5054369;28;20048;-61
2023/04/16 10:18:41;;;;;;;25.15;12.60;;;15.40;99.90;;;;;;5054673;28;20090;-63
2023/04/16 10:21:10;;;;;;;26.58;12.73;;;15.50;99.90;;;;;;5052650;28;20048;-62
2023/04/16 10:23:38;;;;;;;28.33;14.10;;;15.50;99.90;;;;;;5071491;28;20517;-63
2023/04/16 10:26:06;;;;;;;23.65;12.77;;;15.60;99.90;;;;;;5069734;28;20048;-62
2023/04/16 10:28:34;;;;;;;26.15;12.90;;;15.90;99.90;;;;;;5051454;28;20560;-61
2023/04/16 10:31:04;;;;;;;27.05;12.02;;;16.00;99.90;;;;;;5053751;28;20059;-62
2023/04/16 10:33:33;;;;;;;22.40;12.98;;;15.90;99.90;;;;;;5071215;28;20047;-62
2023/04/16 10:36:11;;;;;;;27.15;12.90;;;15.90;99.90;;;;;;5043571;28;20091;-62
2023/04/16 10:38:40;;;;;;;29.13;12.32;;;16.00;99.90;;;;;;5053454;28;20052;-63
2023/04/16 10:41:07;;;;;;;22.27;11.65;;;16.20;99.90;;;;;;5053225;28;20059;-62
2023/04/16 10:43:40;;;;;;;21.20;11.00;;;16.30;99.90;;;;;;5052983;28;20471;-60
2023/04/16 10:46:20;;;;;;;31.80;13.20;;;16.20;99.90;;;;;;5071161;28;20055;-62
2023/04/16 10:48:47;;;;;;;26.77;12.52;;;16.50;99.90;;;;;;5048731;28;20049;-62
2023/04/16 10:51:25;;;;;;;18.63;11.27;;;16.50;99.90;;;;;;5071901;28;20053;-62
2023/04/16 10:53:53;;;;;;;25.15;11.57;;;16.70;99.90;;;;;;5071041;28;20048;-61
2023/04/16 10:56:23;;;;;;;24.10;12.38;;;16.70;99.90;;;;;;5072533;28;20461;-62
2023/04/16 10:58:52;;;;;;;20.45;11.90;;;16.60;99.90;;;;;;5070310;28;20051;-62
2023/04/16 11:01:30;;;;;;;22.70;12.23;;;16.20;99.90;;;;;;5070593;28;20052;-62
2023/04/16 11:03:58;;;;;;;27.30;13.02;;;15.90;99.90;;;;;;5071879;28;20405;-62
2023/04/16 11:06:26;;;;;;;20.02;12.32;;;15.80;99.90;;;;;;5070622;28;20044;-62
2023/04/16 11:08:55;;;;;;;24.30;13.25;;;15.80;99.90;;;;;;5071647;28;20076;-62
2023/04/16 11:11:23;;;;;;;29.27;13.50;;;15.60;99.90;;;;;;5070799;28;20044;-61
2023/04/16 11:13:54;;;;;;;18.95;11.98;;;15.70;99.90;;;;;;5053595;28;20148;-61
2023/04/16 11:16:24;;;;;;;24.48;12.63;;;15.70;99.90;;;;;;5068535;28;20052;-61
2023/04/16 11:18:51;;;;;;;22.00;12.88;;;15.60;99.90;;;;;;5071216;28;20086;-62
2023/04/16 11:21:19;;;;;;;24.48;12.18;;;15.60;99.90;;;;;;5070100;28;20090;-62
2023/04/16 11:23:50;;;;;;;22.35;12.43;;;15.80;99.90;;;;;;5070812;28;20052;-62
2023/04/16 11:26:24;;;;;;;29.38;11.75;;;16.20;99.90;;;;;;5051179;28;20056;-62
2023/04/16 11:28:51;;;;;;;23.23;11.77;;;16.40;99.90;;;;;;5053208;28;20059;-61
2023/04/16 11:31:18;;;;;;;24.35;10.82;;;16.40;99.90;;;;;;5053313;28;20142;-62
2023/04/16 11:33:47;;;;;;;21.60;11.98;;;16.80;99.90;;;;;;5070621;28;20055;-62
2023/04/16 11:36:14;;;;;;;20.10;11.15;;;17.20;99.90;;;;;;5071340;28;20466;-62
2023/04/16 11:38:41;;;;;;;20.25;12.57;;;17.40;99.90;;;;;;5052380;28;20570;-62
2023/04/16 11:41:09;;;;;;;24.75;11.82;;;17.80;99.90;;;;;;5052602;28;20057;-62
2023/04/16 11:43:36;;;;;;;32.05;13.23;;;18.00;99.90;;;;;;5069553;28;20438;-62
2023/04/16 11:46:04;;;;;;;27.25;14.23;;;17.80;99.90;;;;;;5071728;28;20056;-62
2023/04/16 11:48:49;;;;;;;25.35;11.95;;;17.80;99.90;;;;;;5067337;28;20446;-62
2023/04/16 11:51:17;;;;;;;22.17;11.77;;;17.90;99.90;;;;;;5069204;28;20098;-62
2023/04/16 11:53:48;;;;;;;21.27;12.48;;;18.20;99.90;;;;;;5050781;28;20049;-62
2023/04/16 11:56:16;;;;;;;19.98;11.50;;;18.30;99.90;;;;;;5071120;28;20045;-62
2023/04/16 11:58:43;;;;;;;19.27;11.45;;;18.70;99.90;;;;;;5067687;28;20412;-62
2023/04/16 12:01:10;;;;;;;16.33;10.80;;;18.40;99.90;;;;;;5070267;28;20135;-62
2023/04/16 12:03:39;;;;;;;19.38;11.38;;;18.30;99.90;;;;;;5088285;28;20063;-62
2023/04/16 12:06:09;;;;;;;22.30;11.23;;;18.20;99.90;;;;;;5091483;28;20047;-62
2023/04/16 12:08:36;;;;;;;18.48;10.85;;;17.90;99.90;;;;;;5087774;28;20072;-62
2023/04/16 12:11:03;;;;;;;19.25;11.80;;;17.80;99.90;;;;;;5091841;28;20044;-63
2023/04/16 12:13:30;;;;;;;21.50;11.13;;;17.90;99.90;;;;;;5072004;28;20503;-62
2023/04/16 12:15:57;;;;;;;22.35;10.90;;;17.80;99.90;;;;;;5090263;28;20040;-62
2023/04/16 12:18:26;;;;;;;24.15;12.35;;;17.90;99.90;;;;;;5072718;28;20044;-62
2023/04/16 12:20:53;;;;;;;20.00;11.43;;;18.00;99.90;;;;;;5071056;28;20132;-62
2023/04/16 12:23:26;;;;;;;18.85;11.65;;;18.00;99.90;;;;;;5086945;28;20069;-61
2023/04/16 12:25:53;;;;;;;21.50;11.23;;;18.00;99.90;;;;;;5069952;28;20499;-62
2023/04/16 12:28:30;;;;;;;18.13;11.55;;;18.20;99.90;;;;;;5089261;28;20056;-62
2023/04/16 12:30:57;;;;;;;23.98;12.05;;;18.50;99.90;;;;;;5069436;28;20040;-62
2023/04/16 12:33:24;;;;;;;19.50;11.07;;;18.40;99.90;;;;;;5091157;28;20100;-61
2023/04/16 12:35:51;;;;;;;19.75;11.77;;;18.50;99.90;;;;;;5089555;28;20044;-62